Terminal Aerodrome Forecast
Issued by NWS Boston, MA

Home | Current Version | Previous Version | Text Only | Print | Product List | Glossary On
Versions: 1 2 3 4 5 6 7 8 9 10 11 12 13 14 15 16 17 18 19 20 21 22 23 24 25 26 27 28 29 30 31 32
000
FTUS41 KBOX 282335
TAFORH
TAF
KORH 282335Z 2900/2924 27012KT P6SM BKN250
     FM290500 31007KT P6SM FEW250
     FM291200 01005KT P6SM FEW250
     FM291500 08004KT P6SM SCT250
     FM291800 13004KT P6SM SCT050
     FM291900 14005KT P6SM BKN045=

USA.gov is the U.S. government's official web portal to all federal, state and local government web resources and services.